Ellipsis — WDE4581 — position and weather

sailwx.info

Track history (hours):
 
Tides and Currents Weather Stations Pressure Air Temp Water Temp Dewpoint Dewpoint Depression Visibility Wind Speed Wind Dir Waves Ship Positions

Ellipsis

Owner: Gulledge, Carl L, Redmond, WA. More information available from US FCC via Universal Licensing System and Coast Guard Vessel Documentation Center.

Last reported at 2015-May-27 13:32 UTC. Time now 2015-May-28 20:15 UTC.
Position N 51°00' W 127°45'.

Length 19 m.

Type: Pleasure craft. MMSI: 367355160.

Date/timePositionNaut miles runAvg speedWind from/ knotsBaromVisibWave heightAir tempDewpointWater temp
2015-May-27 13:32N 51°00' W 127°45'8 7.8
2015-May-27 12:33N 50°54' W 127°39'4 3.8
2015-May-27 11:32N 50°50' W 127°36'0 0.0
2015-May-27 10:32N 50°50' W 127°36'0 0.0
2015-May-27 09:32N 50°50' W 127°36'0 0.0
2015-May-27 08:32N 50°50' W 127°36'0 0.0
2015-May-27 07:32N 50°50' W 127°36'0 0.0
2015-May-27 06:32N 50°50' W 127°36'0 0.0
2015-May-27 05:32N 50°50' W 127°36'0 0.0
2015-May-27 04:32N 50°50' W 127°36'0 0.0
2015-May-27 03:32N 50°50' W 127°36'0 0.0
2015-May-27 02:26N 50°50' W 127°36'0 0.0
2015-May-27 01:32N 50°50' W 127°36'2 2.5
2015-May-27 00:32N 50°49' W 127°32'  
2015-May-24 13:15N 49°32' W 124°00'2 0.1
2015-May-23 21:09N 49°30' W 123°59'0 0.0
2015-May-23 18:15N 49°30' W 123°59'5 0.3
2015-May-22 23:28N 49°26' W 123°54'51 1.1
2015-May-21 01:06N 48°39' W 123°24'0 0.0
2015-May-20 16:07N 48°39' W 123°24'0 0.0
2015-May-20 08:54N 48°39' W 123°24'0 0.0
2015-May-20 07:24N 48°39' W 123°24'13 1.1
2015-May-19 19:33N 48°29' W 123°11'4 4.4
2015-May-19 18:33N 48°25' W 123°08'40 1.7
2015-May-18 19:33N 47°54' W 122°31'9 8.3
2015-May-18 18:29N 47°45' W 122°27'2 8.4
2015-May-18 18:17N 47°43' W 122°26'3 1.0
2015-May-18 15:17N 47°41' W 122°24'0 0.0
2015-May-18 15:17N 47°41' W 122°24'0 0.0
2015-May-18 08:14N 47°41' W 122°24'0 0.0
2015-May-18 04:23N 47°41' W 122°24'0 0.0
2015-May-18 00:33N 47°41' W 122°24'0 0.0
2015-May-18 00:33N 47°41' W 122°24'0 2.2
2015-May-18 00:29N 47°41' W 122°25'  
Track history (hours):
 
Tides and Currents Weather Stations Pressure Air Temp Water Temp Dewpoint Dewpoint Depression Visibility Wind Speed Wind Dir Waves Ship Positions

Ellipsis

Owner: Gulledge, Carl L, Redmond, WA. More information available from US FCC via Universal Licensing System and Coast Guard Vessel Documentation Center.

Last reported at 2015-May-27 13:32 UTC. Time now 2015-May-28 20:15 UTC.
Position N 51°00' W 127°45'.

Length 19 m.

Type: Pleasure craft. MMSI: 367355160.

Date/timePositionNaut miles runAvg speedWind from/ knotsBaromVisibWave heightAir tempDewpointWater temp
2015-May-27 13:32N 51°00' W 127°45'8 7.8
2015-May-27 12:33N 50°54' W 127°39'4 3.8
2015-May-27 11:32N 50°50' W 127°36'0 0.0
2015-May-27 10:32N 50°50' W 127°36'0 0.0
2015-May-27 09:32N 50°50' W 127°36'0 0.0
2015-May-27 08:32N 50°50' W 127°36'0 0.0
2015-May-27 07:32N 50°50' W 127°36'0 0.0
2015-May-27 06:32N 50°50' W 127°36'0 0.0
2015-May-27 05:32N 50°50' W 127°36'0 0.0
2015-May-27 04:32N 50°50' W 127°36'0 0.0
2015-May-27 03:32N 50°50' W 127°36'0 0.0
2015-May-27 02:26N 50°50' W 127°36'0 0.0
2015-May-27 01:32N 50°50' W 127°36'2 2.5
2015-May-27 00:32N 50°49' W 127°32'  
2015-May-24 13:15N 49°32' W 124°00'2 0.1
2015-May-23 21:09N 49°30' W 123°59'0 0.0
2015-May-23 18:15N 49°30' W 123°59'5 0.3
2015-May-22 23:28N 49°26' W 123°54'51 1.1
2015-May-21 01:06N 48°39' W 123°24'0 0.0
2015-May-20 16:07N 48°39' W 123°24'0 0.0
2015-May-20 08:54N 48°39' W 123°24'0 0.0
2015-May-20 07:24N 48°39' W 123°24'13 1.1
2015-May-19 19:33N 48°29' W 123°11'4 4.4
2015-May-19 18:33N 48°25' W 123°08'40 1.7
2015-May-18 19:33N 47°54' W 122°31'9 8.3
2015-May-18 18:29N 47°45' W 122°27'2 8.4
2015-May-18 18:17N 47°43' W 122°26'3 1.0
2015-May-18 15:17N 47°41' W 122°24'0 0.0
2015-May-18 15:17N 47°41' W 122°24'0 0.0
2015-May-18 08:14N 47°41' W 122°24'0 0.0
2015-May-18 04:23N 47°41' W 122°24'0 0.0
2015-May-18 00:33N 47°41' W 122°24'0 0.0
2015-May-18 00:33N 47°41' W 122°24'0 2.2
2015-May-18 00:29N 47°41' W 122°25'  

Dump ship's entire track history